Time;durP1;ratioP1;P1;durP2;ratioP2;P2;SDS_P1;SDS_P2;PMS_P1;PMS_P2;Temp;Humidity;BMP_temperature;BMP_pressure;BME280_temperature;BME280_humidity;BME280_pressure;Samples;Min_cycle;Max_cycle;Signal;HPM_P1;HPM_P2
2021/10/14 00:00:41;;;;;;;0.27;0.27;;;10.20;99.90;;;;;;5088033;28;20176;-81
2021/10/14 00:03:08;;;;;;;0.10;0.10;;;10.20;99.90;;;;;;5082486;28;20189;-81
2021/10/14 00:05:34;;;;;;;0.17;0.17;;;10.20;99.90;;;;;;5086761;28;20840;-81
2021/10/14 00:08:00;;;;;;;2.67;0.40;;;10.10;99.90;;;;;;5087857;28;20264;-81
2021/10/14 00:10:27;;;;;;;0.17;0.17;;;10.10;99.90;;;;;;5083806;28;20239;-81
2021/10/14 00:12:52;;;;;;;0.10;0.10;;;10.10;99.90;;;;;;5078377;28;20172;-81
2021/10/14 00:15:18;;;;;;;0.20;0.20;;;10.10;99.90;;;;;;5083498;28;20551;-81
2021/10/14 00:17:44;;;;;;;0.33;0.30;;;10.10;99.90;;;;;;5079234;28;20183;-81
2021/10/14 00:20:10;;;;;;;0.33;0.30;;;10.10;99.90;;;;;;5086499;28;20195;-81
2021/10/14 00:22:36;;;;;;;0.30;0.30;;;10.10;99.90;;;;;;5086655;28;20190;-81
2021/10/14 00:25:02;;;;;;;0.10;0.10;;;10.10;99.90;;;;;;5083177;28;20668;-81
2021/10/14 00:27:28;;;;;;;0.00;0.00;;;10.10;99.90;;;;;;5082548;28;20211;-81
2021/10/14 00:29:53;;;;;;;0.10;0.10;;;10.10;99.90;;;;;;5078533;28;20190;-81
2021/10/14 00:32:19;;;;;;;0.57;0.47;;;10.10;99.90;;;;;;5074325;28;20200;-81
2021/10/14 00:34:44;;;;;;;0.30;0.30;;;10.10;99.90;;;;;;5080326;28;20620;-81
2021/10/14 00:37:10;;;;;;;0.20;0.20;;;10.10;99.90;;;;;;5077925;28;20198;-81
2021/10/14 00:39:36;;;;;;;0.00;0.00;;;10.10;99.90;;;;;;5076316;28;20267;-81
2021/10/14 00:42:01;;;;;;;0.17;0.17;;;10.10;99.90;;;;;;5088817;28;20187;-81
2021/10/14 00:44:27;;;;;;;0.60;0.47;;;10.10;99.90;;;;;;5082268;28;20187;-81
2021/10/14 00:46:56;;;;;;;0.20;0.20;;;10.00;99.90;;;;;;5084478;28;20204;-81
2021/10/14 00:49:22;;;;;;;0.30;0.30;;;10.00;99.90;;;;;;5091141;28;20225;-81
2021/10/14 00:51:48;;;;;;;0.33;0.33;;;10.00;99.90;;;;;;5084967;28;20205;-81
2021/10/14 00:54:17;;;;;;;0.20;0.20;;;10.00;99.90;;;;;;5084038;28;20179;-81
2021/10/14 00:56:45;;;;;;;0.30;0.30;;;10.00;99.90;;;;;;5078847;28;20198;-81
2021/10/14 00:59:12;;;;;;;0.10;0.10;;;10.00;99.90;;;;;;5091097;28;20562;-81
2021/10/14 01:01:38;;;;;;;0.53;0.53;;;10.00;99.90;;;;;;5087972;28;20646;-81
2021/10/14 01:04:05;;;;;;;0.23;0.23;;;9.90;99.90;;;;;;5081823;28;20194;-82
2021/10/14 01:06:31;;;;;;;0.30;0.30;;;9.90;99.90;;;;;;5092600;28;20204;-81
2021/10/14 01:08:57;;;;;;;0.23;0.23;;;10.00;99.90;;;;;;5089422;28;20209;-81
2021/10/14 01:11:23;;;;;;;0.50;0.50;;;9.90;99.90;;;;;;5091187;28;20712;-81
2021/10/14 01:13:49;;;;;;;0.90;0.83;;;9.90;99.90;;;;;;5081933;28;20585;-81
2021/10/14 01:16:15;;;;;;;1.90;0.23;;;9.80;99.90;;;;;;5088061;28;20201;-81
2021/10/14 01:18:40;;;;;;;0.50;0.50;;;9.80;99.90;;;;;;5090694;28;20188;-81
2021/10/14 01:21:07;;;;;;;0.20;0.20;;;9.80;99.90;;;;;;5092716;28;20181;-81
2021/10/14 01:23:32;;;;;;;0.30;0.30;;;9.70;99.90;;;;;;5075806;28;20185;-81
2021/10/14 01:25:58;;;;;;;0.27;0.27;;;9.70;99.90;;;;;;5071770;28;20297;-81
2021/10/14 01:28:23;;;;;;;0.13;0.13;;;9.70;99.90;;;;;;5088030;28;20200;-81
2021/10/14 01:30:49;;;;;;;0.10;0.10;;;9.70;99.90;;;;;;5078984;28;20204;-81
2021/10/14 01:33:16;;;;;;;0.20;0.20;;;9.60;99.90;;;;;;5079595;28;20184;-81
2021/10/14 01:35:42;;;;;;;0.77;0.70;;;9.60;99.90;;;;;;5082213;28;20678;-81
2021/10/14 01:38:08;;;;;;;0.27;0.20;;;9.60;99.90;;;;;;5103198;28;20649;-81
2021/10/14 01:40:34;;;;;;;0.20;0.20;;;9.50;99.90;;;;;;5079347;28;20223;-81
2021/10/14 01:42:59;;;;;;;0.10;0.10;;;9.50;99.90;;;;;;5081042;28;20201;-81
2021/10/14 01:45:25;;;;;;;0.30;0.30;;;9.50;99.90;;;;;;5079683;28;20201;-81
2021/10/14 01:47:50;;;;;;;0.23;0.23;;;9.50;99.90;;;;;;5077666;28;20180;-80
2021/10/14 01:50:16;;;;;;;0.30;0.30;;;9.50;99.90;;;;;;5079401;28;20178;-81
2021/10/14 01:52:41;;;;;;;0.13;0.13;;;9.60;99.90;;;;;;5079900;28;20735;-81
2021/10/14 01:55:07;;;;;;;0.63;0.63;;;9.60;99.90;;;;;;5088250;28;20177;-81
2021/10/14 01:57:33;;;;;;;0.20;0.20;;;9.60;99.90;;;;;;5086385;28;20239;-81
2021/10/14 01:59:58;;;;;;;0.40;0.40;;;9.60;99.90;;;;;;5077788;28;20180;-81
2021/10/14 02:02:24;;;;;;;1.50;1.40;;;9.60;99.90;;;;;;5084093;28;20212;-81
2021/10/14 02:04:49;;;;;;;0.50;0.50;;;9.60;99.90;;;;;;5089790;28;20186;-81
2021/10/14 02:07:15;;;;;;;0.13;0.13;;;9.70;99.90;;;;;;5081981;28;20291;-81
2021/10/14 02:09:43;;;;;;;0.30;0.30;;;9.70;99.90;;;;;;5091832;28;20180;-80
2021/10/14 02:12:08;;;;;;;0.93;0.50;;;9.80;99.90;;;;;;5089700;28;20193;-81
2021/10/14 02:14:34;;;;;;;0.37;0.37;;;9.80;99.90;;;;;;5080526;28;20188;-81
2021/10/14 02:16:59;;;;;;;0.40;0.40;;;9.80;99.90;;;;;;5081516;28;20195;-81
2021/10/14 02:19:25;;;;;;;0.17;0.17;;;9.80;99.90;;;;;;5089605;28;20172;-81
2021/10/14 02:21:50;;;;;;;0.20;0.20;;;9.80;99.90;;;;;;5083626;28;20179;-81
2021/10/14 02:24:16;;;;;;;1.20;0.40;;;9.80;99.90;;;;;;5080582;28;20187;-81
2021/10/14 02:26:42;;;;;;;0.27;0.27;;;9.80;99.90;;;;;;5088528;28;20243;-81
2021/10/14 02:29:12;;;;;;;1.17;0.43;;;9.70;99.90;;;;;;5087359;28;20197;-81
2021/10/14 02:31:39;;;;;;;0.13;0.13;;;9.70;99.90;;;;;;5101483;28;20275;-81
2021/10/14 02:34:06;;;;;;;1.33;0.40;;;9.70;99.90;;;;;;5075305;28;20185;-81
2021/10/14 02:36:32;;;;;;;0.60;0.60;;;9.70;99.90;;;;;;5078989;28;20199;-81
2021/10/14 02:38:57;;;;;;;1.40;1.40;;;9.70;99.90;;;;;;5087957;28;20597;-81
2021/10/14 02:41:25;;;;;;;0.20;0.20;;;9.60;99.90;;;;;;5086830;28;20203;-82
2021/10/14 02:43:50;;;;;;;0.17;0.10;;;9.60;99.90;;;;;;5084996;28;20666;-80
2021/10/14 02:46:16;;;;;;;0.30;0.30;;;9.60;99.90;;;;;;5089037;28;20194;-81
2021/10/14 02:48:41;;;;;;;0.30;0.30;;;9.60;99.90;;;;;;5080263;28;20184;-81
2021/10/14 02:51:07;;;;;;;0.27;0.27;;;9.60;99.90;;;;;;5085855;28;20680;-83
2021/10/14 02:53:33;;;;;;;0.20;0.20;;;9.60;99.90;;;;;;5084118;28;20204;-81
2021/10/14 02:55:58;;;;;;;0.53;0.53;;;9.50;99.90;;;;;;5081115;28;20247;-81
2021/10/14 02:58:24;;;;;;;0.93;0.20;;;9.60;99.90;;;;;;5093278;28;20173;-80
2021/10/14 03:00:49;;;;;;;0.97;0.40;;;9.60;99.90;;;;;;5078056;28;20191;-81
2021/10/14 03:03:15;;;;;;;0.30;0.30;;;9.60;99.90;;;;;;5079699;28;20814;-80
2021/10/14 03:05:40;;;;;;;0.30;0.30;;;9.60;99.90;;;;;;5079820;28;20214;-81
2021/10/14 03:08:06;;;;;;;0.47;0.47;;;9.60;99.90;;;;;;5077510;28;20212;-81
2021/10/14 03:10:32;;;;;;;0.30;0.30;;;9.60;99.90;;;;;;5078547;28;20189;-80
2021/10/14 03:12:58;;;;;;;0.30;0.30;;;9.60;99.90;;;;;;5088501;28;20182;-80
2021/10/14 03:15:23;;;;;;;0.20;0.20;;;9.60;99.90;;;;;;5077111;28;20205;-81
2021/10/14 03:17:49;;;;;;;0.50;0.23;;;9.60;99.90;;;;;;5078144;28;20248;-82
2021/10/14 03:20:15;;;;;;;0.40;0.27;;;9.60;99.90;;;;;;5078278;28;20194;-81
2021/10/14 03:22:40;;;;;;;0.17;0.17;;;9.60;99.90;;;;;;5085903;28;20182;-81
2021/10/14 03:25:07;;;;;;;0.90;0.20;;;9.60;99.90;;;;;;5083060;28;20178;-81
2021/10/14 03:27:33;;;;;;;0.20;0.20;;;9.60;99.90;;;;;;5087179;28;20196;-81
2021/10/14 03:29:58;;;;;;;0.63;0.63;;;9.60;99.90;;;;;;5092540;28;20656;-81
2021/10/14 03:32:24;;;;;;;0.10;0.10;;;9.60;99.90;;;;;;5092427;28;20199;-81
2021/10/14 03:34:49;;;;;;;0.20;0.20;;;9.60;99.90;;;;;;5067356;28;20182;-81
2021/10/14 03:37:16;;;;;;;0.30;0.30;;;9.60;99.90;;;;;;5072330;28;20202;-81
2021/10/14 03:39:42;;;;;;;0.20;0.20;;;9.60;99.90;;;;;;5070354;28;20181;-82
2021/10/14 03:42:07;;;;;;;0.50;0.50;;;9.60;99.90;;;;;;5082513;28;20237;-81
2021/10/14 03:44:33;;;;;;;0.23;0.23;;;9.70;99.90;;;;;;5076119;28;20181;-81
2021/10/14 03:46:58;;;;;;;0.50;0.50;;;9.70;99.90;;;;;;5074771;28;20239;-81
2021/10/14 03:49:24;;;;;;;0.40;0.40;;;9.70;99.90;;;;;;5090635;28;20834;-82
2021/10/14 03:51:49;;;;;;;0.40;0.40;;;9.70;99.90;;;;;;5070155;28;20236;-81
2021/10/14 03:54:15;;;;;;;0.20;0.20;;;9.70;99.90;;;;;;5078092;28;20180;-81
2021/10/14 03:56:40;;;;;;;0.10;0.10;;;9.70;99.90;;;;;;5073238;28;20246;-81
2021/10/14 03:59:06;;;;;;;0.40;0.40;;;9.70;99.90;;;;;;5075351;28;20205;-82
2021/10/14 04:01:32;;;;;;;0.17;0.17;;;9.70;99.90;;;;;;5080622;28;20182;-80
2021/10/14 04:03:57;;;;;;;0.20;0.20;;;9.80;99.90;;;;;;5082936;28;20183;-81
2021/10/14 04:06:23;;;;;;;0.20;0.20;;;9.80;99.90;;;;;;5081403;28;20205;-81
2021/10/14 04:08:48;;;;;;;0.33;0.33;;;9.90;99.90;;;;;;5072038;28;20271;-81
2021/10/14 04:11:14;;;;;;;0.20;0.20;;;9.90;99.90;;;;;;5091903;28;20197;-81
2021/10/14 04:13:39;;;;;;;0.13;0.13;;;9.90;99.90;;;;;;5070826;28;20190;-81
2021/10/14 04:16:05;;;;;;;0.60;0.33;;;9.90;99.90;;;;;;5085092;28;20278;-81
2021/10/14 04:18:30;;;;;;;0.30;0.20;;;9.90;99.90;;;;;;5078025;28;20182;-81
2021/10/14 04:20:56;;;;;;;0.10;0.10;;;9.90;99.90;;;;;;5083170;28;20230;-81
2021/10/14 04:23:23;;;;;;;0.40;0.40;;;10.00;99.90;;;;;;5069193;28;20194;-81
2021/10/14 04:25:48;;;;;;;0.43;0.30;;;10.00;99.90;;;;;;5082288;28;20265;-81
2021/10/14 04:28:14;;;;;;;0.33;0.33;;;10.00;99.90;;;;;;5081941;28;20200;-81
2021/10/14 04:30:40;;;;;;;0.60;0.60;;;10.00;99.90;;;;;;5077481;28;20206;-81
2021/10/14 04:33:06;;;;;;;0.27;0.27;;;10.00;99.90;;;;;;5072238;28;20252;-81
2021/10/14 04:35:32;;;;;;;0.67;0.30;;;10.00;99.90;;;;;;5077070;28;20573;-81
2021/10/14 04:37:57;;;;;;;0.10;0.10;;;10.00;99.90;;;;;;5076801;28;20181;-81
2021/10/14 04:40:23;;;;;;;0.40;0.40;;;10.00;99.90;;;;;;5087698;28;20574;-81
2021/10/14 04:42:48;;;;;;;0.30;0.30;;;10.00;99.90;;;;;;5071729;28;20185;-81
2021/10/14 04:45:16;;;;;;;0.30;0.27;;;10.00;99.90;;;;;;5080603;28;20295;-82
2021/10/14 04:47:41;;;;;;;0.20;0.20;;;10.00;99.90;;;;;;5072708;28;20310;-83
2021/10/14 04:50:07;;;;;;;0.27;0.27;;;10.00;99.90;;;;;;5087982;28;20221;-82
2021/10/14 04:52:33;;;;;;;1.17;0.30;;;10.00;99.90;;;;;;5067317;28;20290;-83
2021/10/14 04:54:59;;;;;;;0.20;0.20;;;9.90;99.90;;;;;;5090289;28;20733;-82
2021/10/14 04:57:24;;;;;;;0.20;0.20;;;9.90;99.90;;;;;;5078360;28;20185;-81
2021/10/14 04:59:50;;;;;;;0.43;0.37;;;9.90;99.90;;;;;;5081273;28;20190;-82
2021/10/14 05:02:16;;;;;;;0.60;0.60;;;9.90;99.90;;;;;;5079006;28;20188;-81
2021/10/14 05:04:41;;;;;;;0.17;0.17;;;9.80;99.90;;;;;;5081070;28;20188;-81
2021/10/14 05:07:07;;;;;;;0.63;0.63;;;9.90;99.90;;;;;;5082923;28;20208;-80
2021/10/14 05:09:32;;;;;;;0.70;0.70;;;9.80;99.90;;;;;;5077162;28;20187;-81
2021/10/14 05:11:59;;;;;;;0.30;0.30;;;9.80;99.90;;;;;;5076590;28;20193;-81
2021/10/14 05:14:24;;;;;;;0.50;0.40;;;9.80;99.90;;;;;;5084778;28;20206;-81
2021/10/14 05:16:50;;;;;;;0.27;0.27;;;9.70;99.90;;;;;;5077482;28;20250;-81
2021/10/14 05:19:15;;;;;;;0.20;0.20;;;9.70;99.90;;;;;;5078470;28;20177;-80
2021/10/14 05:21:41;;;;;;;0.43;0.43;;;9.70;99.90;;;;;;5085492;28;20193;-81
2021/10/14 05:24:07;;;;;;;0.37;0.30;;;9.80;99.90;;;;;;5079172;28;20198;-81
2021/10/14 05:26:33;;;;;;;0.33;0.33;;;9.80;99.90;;;;;;5073214;28;20208;-82
2021/10/14 05:29:00;;;;;;;0.30;0.30;;;9.80;99.90;;;;;;5087507;28;20222;-82
2021/10/14 05:31:27;;;;;;;0.30;0.30;;;9.80;99.90;;;;;;5063847;28;20277;-82
2021/10/14 05:33:54;;;;;;;0.33;0.33;;;9.90;99.90;;;;;;5078072;28;20179;-81
2021/10/14 05:36:20;;;;;;;0.20;0.20;;;9.90;99.90;;;;;;5078939;28;20208;-82
2021/10/14 05:38:45;;;;;;;0.80;0.47;;;9.90;99.90;;;;;;5076661;28;20185;-81
2021/10/14 05:41:11;;;;;;;0.10;0.10;;;9.90;99.90;;;;;;5067533;28;20186;-82
2021/10/14 05:43:37;;;;;;;0.17;0.17;;;10.00;99.90;;;;;;5066421;28;20183;-82
2021/10/14 05:46:03;;;;;;;0.13;0.13;;;9.90;99.90;;;;;;5068937;28;20568;-82
2021/10/14 05:48:28;;;;;;;0.47;0.30;;;9.90;99.90;;;;;;5063574;28;20228;-82
2021/10/14 05:50:54;;;;;;;3.10;0.40;;;10.00;99.90;;;;;;5082788;28;20286;-82
2021/10/14 05:53:19;;;;;;;0.27;0.27;;;10.00;99.90;;;;;;5062551;28;20718;-82
2021/10/14 05:55:45;;;;;;;0.20;0.20;;;10.00;99.90;;;;;;5066743;28;20207;-82
2021/10/14 05:58:11;;;;;;;0.50;0.50;;;10.00;99.90;;;;;;5063464;28;20238;-83
2021/10/14 06:00:37;;;;;;;0.43;0.30;;;10.00;99.90;;;;;;5059985;28;20178;-82
2021/10/14 06:03:02;;;;;;;3.70;0.90;;;10.00;99.90;;;;;;5063458;28;20229;-82
2021/10/14 06:05:28;;;;;;;0.60;0.47;;;10.10;99.90;;;;;;5061741;28;20283;-83
2021/10/14 06:07:54;;;;;;;0.10;0.10;;;10.10;99.90;;;;;;5069693;28;20320;-82
2021/10/14 06:10:19;;;;;;;0.10;0.10;;;10.20;99.90;;;;;;5072445;28;20646;-84
2021/10/14 06:12:45;;;;;;;0.20;0.20;;;10.20;99.90;;;;;;5073561;28;20639;-82
2021/10/14 06:15:11;;;;;;;0.80;0.50;;;10.20;99.90;;;;;;5071518;28;20188;-82
2021/10/14 06:17:36;;;;;;;0.27;0.27;;;10.20;99.90;;;;;;5063140;28;20188;-82
2021/10/14 06:20:03;;;;;;;2.37;0.73;;;10.30;99.90;;;;;;5063899;28;20179;-82
2021/10/14 06:22:29;;;;;;;0.93;0.60;;;10.30;99.90;;;;;;5070220;28;20182;-81
2021/10/14 06:24:54;;;;;;;1.53;0.40;;;10.20;99.90;;;;;;5067347;28;20219;-82
2021/10/14 06:27:20;;;;;;;1.40;1.30;;;10.30;99.90;;;;;;5071981;28;20201;-83
2021/10/14 06:29:45;;;;;;;0.40;0.30;;;10.30;99.90;;;;;;5082705;28;20278;-82
2021/10/14 06:32:11;;;;;;;0.13;0.13;;;10.30;99.90;;;;;;5066265;28;20209;-80
2021/10/14 06:34:37;;;;;;;0.53;0.53;;;10.40;99.90;;;;;;5070969;28;20190;-82
2021/10/14 06:37:03;;;;;;;0.10;0.10;;;10.40;99.90;;;;;;5079177;28;20304;-81
2021/10/14 06:39:28;;;;;;;0.40;0.40;;;10.40;99.90;;;;;;5080455;28;20179;-81
2021/10/14 06:41:55;;;;;;;0.60;0.40;;;10.50;99.90;;;;;;5081338;28;20182;-81
2021/10/14 06:44:22;;;;;;;0.20;0.20;;;10.50;99.90;;;;;;5077761;28;20178;-82
2021/10/14 06:46:47;;;;;;;0.30;0.30;;;10.50;99.90;;;;;;5088307;28;20208;-82
2021/10/14 06:49:13;;;;;;;0.43;0.43;;;10.60;99.90;;;;;;5083880;28;20183;-82
2021/10/14 06:51:39;;;;;;;1.70;1.60;;;10.60;99.90;;;;;;5080385;28;20234;-81
2021/10/14 06:54:04;;;;;;;0.50;0.50;;;10.60;99.90;;;;;;5091444;28;20196;-81
2021/10/14 06:56:30;;;;;;;0.37;0.37;;;10.70;99.90;;;;;;5077013;28;20208;-82
2021/10/14 06:58:56;;;;;;;0.40;0.40;;;10.80;99.90;;;;;;5078735;28;20649;-81
2021/10/14 07:01:21;;;;;;;0.20;0.20;;;10.80;99.90;;;;;;5080511;28;20741;-81
2021/10/14 07:03:47;;;;;;;0.13;0.13;;;10.90;99.90;;;;;;5075149;28;20230;-82
2021/10/14 07:06:13;;;;;;;0.53;0.53;;;10.90;99.90;;;;;;5078352;28;20293;-82
2021/10/14 07:08:38;;;;;;;0.10;0.10;;;11.00;99.90;;;;;;5072679;28;20187;-81
2021/10/14 07:11:04;;;;;;;0.20;0.20;;;11.10;99.90;;;;;;5087118;28;20211;-81
2021/10/14 07:13:30;;;;;;;0.70;0.70;;;11.10;99.90;;;;;;5083763;28;20694;-82
2021/10/14 07:15:58;;;;;;;0.23;0.23;;;11.20;99.90;;;;;;5077056;28;20217;-82
2021/10/14 07:18:23;;;;;;;0.50;0.50;;;11.20;99.90;;;;;;5078987;28;20263;-82
2021/10/14 07:20:49;;;;;;;0.33;0.33;;;11.20;99.90;;;;;;5081896;28;20676;-81
2021/10/14 07:23:16;;;;;;;0.20;0.20;;;11.20;99.90;;;;;;5083882;28;20272;-81
2021/10/14 07:25:43;;;;;;;0.23;0.23;;;11.20;99.90;;;;;;5078828;28;20210;-81
2021/10/14 07:28:10;;;;;;;0.40;0.40;;;11.30;99.90;;;;;;5077716;28;20719;-81
2021/10/14 07:30:37;;;;;;;0.10;0.10;;;11.30;99.90;;;;;;5068394;28;20539;-81
2021/10/14 07:33:03;;;;;;;0.43;0.33;;;11.40;99.90;;;;;;5079721;28;20191;-84
2021/10/14 07:35:38;;;;;;;0.30;0.30;;;11.40;99.90;;;;;;5068635;28;20200;-84
2021/10/14 07:38:10;;;;;;;0.20;0.20;;;11.50;99.90;;;;;;5074767;28;20216;-84
2021/10/14 07:40:39;;;;;;;0.23;0.23;;;11.50;99.90;;;;;;5068829;28;20265;-82
2021/10/14 07:43:05;;;;;;;0.63;0.63;;;11.60;99.90;;;;;;5085084;28;20211;-84
2021/10/14 07:45:31;;;;;;;0.40;0.40;;;11.70;99.90;;;;;;5076316;28;20293;-82
2021/10/14 07:47:56;;;;;;;0.40;0.40;;;11.70;99.90;;;;;;5088429;28;20551;-83
2021/10/14 07:50:22;;;;;;;0.17;0.17;;;11.80;99.90;;;;;;5073000;28;20271;-82
2021/10/14 07:52:47;;;;;;;2.40;0.40;;;11.90;99.90;;;;;;5076472;28;20757;-82
2021/10/14 07:55:14;;;;;;;0.53;0.53;;;12.00;99.90;;;;;;5072365;28;20181;-83
2021/10/14 07:57:39;;;;;;;0.10;0.10;;;12.10;99.90;;;;;;5082192;28;20200;-83
2021/10/14 08:00:07;;;;;;;0.33;0.33;;;12.20;99.90;;;;;;5075509;28;20630;-81
2021/10/14 08:02:33;;;;;;;0.50;0.30;;;12.30;99.90;;;;;;5069741;28;20190;-82
2021/10/14 08:04:58;;;;;;;0.17;0.17;;;12.30;99.90;;;;;;5076584;28;20192;-82
2021/10/14 08:07:24;;;;;;;0.10;0.10;;;12.30;99.90;;;;;;5072469;28;20228;-82
2021/10/14 08:09:50;;;;;;;0.33;0.33;;;12.40;99.90;;;;;;5077725;28;20193;-81
2021/10/14 08:12:16;;;;;;;0.80;0.77;;;12.40;99.90;;;;;;5075457;28;20259;-82
2021/10/14 08:14:41;;;;;;;1.20;0.43;;;12.40;99.90;;;;;;5077031;28;20778;-82
2021/10/14 08:17:07;;;;;;;1.13;1.13;;;12.40;99.90;;;;;;5078774;28;20251;-82
2021/10/14 08:19:32;;;;;;;0.20;0.20;;;12.40;99.90;;;;;;5061800;28;20238;-82
2021/10/14 08:21:58;;;;;;;0.83;0.57;;;12.40;99.90;;;;;;5071190;28;20174;-82
2021/10/14 08:24:24;;;;;;;0.63;0.27;;;12.40;99.90;;;;;;5068632;28;20611;-82
2021/10/14 08:26:51;;;;;;;1.03;0.73;;;12.40;99.90;;;;;;5076341;28;20214;-82
2021/10/14 08:29:17;;;;;;;0.40;0.40;;;12.40;99.90;;;;;;5062488;28;20262;-82
2021/10/14 08:31:43;;;;;;;1.10;0.70;;;12.50;99.90;;;;;;5079377;28;20224;-82
2021/10/14 08:34:09;;;;;;;0.90;0.40;;;12.50;99.90;;;;;;5074464;28;20179;-82
2021/10/14 08:36:35;;;;;;;0.40;0.40;;;12.50;99.90;;;;;;5068115;28;20211;-82
2021/10/14 08:39:00;;;;;;;0.40;0.40;;;12.50;99.90;;;;;;5073499;28;20602;-82
2021/10/14 08:41:26;;;;;;;0.37;0.37;;;12.50;99.90;;;;;;5053371;28;20240;-82
2021/10/14 08:43:55;;;;;;;0.23;0.23;;;12.50;99.90;;;;;;5059221;28;20182;-83
2021/10/14 08:46:21;;;;;;;0.70;0.67;;;12.60;99.90;;;;;;5059106;28;20582;-83
2021/10/14 08:48:47;;;;;;;0.70;0.70;;;12.60;99.90;;;;;;5059509;28;20212;-84
2021/10/14 08:51:13;;;;;;;0.40;0.40;;;12.70;99.90;;;;;;5063851;28;20246;-83
2021/10/14 08:53:39;;;;;;;0.20;0.20;;;12.60;99.90;;;;;;5063764;28;20177;-83
2021/10/14 08:56:05;;;;;;;0.30;0.30;;;12.60;99.90;;;;;;5074913;28;20199;-84
2021/10/14 08:58:31;;;;;;;0.30;0.30;;;12.50;99.90;;;;;;5072474;28;20542;-82
2021/10/14 09:01:12;;;;;;;0.30;0.30;;;12.70;99.90;;;;;;5079614;28;20170;-83
2021/10/14 09:03:49;;;;;;;0.13;0.13;;;12.70;99.90;;;;;;5082298;28;20252;-83
2021/10/14 09:06:17;;;;;;;0.67;0.67;;;12.80;99.90;;;;;;5070280;28;20243;-83
2021/10/14 09:08:52;;;;;;;0.87;0.60;;;13.00;99.90;;;;;;5070649;28;20183;-83
2021/10/14 09:11:25;;;;;;;0.30;0.30;;;13.10;99.90;;;;;;5085906;28;20212;-83
2021/10/14 09:13:53;;;;;;;0.77;0.70;;;13.20;99.90;;;;;;5074128;28;20170;-84
2021/10/14 09:16:39;;;;;;;0.60;0.60;;;13.20;99.90;;;;;;5082670;28;20200;-83
2021/10/14 09:19:11;;;;;;;0.67;0.63;;;13.30;99.90;;;;;;5079363;28;20174;-83
2021/10/14 09:21:37;;;;;;;1.30;0.30;;;13.30;99.90;;;;;;5076110;28;20561;-83
2021/10/14 09:24:26;;;;;;;0.30;0.30;;;13.40;99.90;;;;;;5056798;28;20222;-82
2021/10/14 09:26:53;;;;;;;0.27;0.27;;;13.60;99.90;;;;;;5055216;28;20201;-83
2021/10/14 09:29:21;;;;;;;0.13;0.13;;;13.80;99.90;;;;;;5054701;28;20204;-82
2021/10/14 09:31:51;;;;;;;0.43;0.43;;;13.90;99.90;;;;;;5070291;28;20220;-83
2021/10/14 09:34:26;;;;;;;0.50;0.50;;;14.00;99.90;;;;;;5075762;28;20660;-82
2021/10/14 09:36:52;;;;;;;0.17;0.17;;;14.00;99.90;;;;;;5075662;28;20264;-82
2021/10/14 09:39:19;;;;;;;0.93;0.73;;;14.00;99.90;;;;;;5068337;28;20188;-82
2021/10/14 09:41:44;;;;;;;0.30;0.30;;;13.90;99.90;;;;;;5079444;28;20656;-84
2021/10/14 09:44:18;;;;;;;0.53;0.53;;;14.10;99.90;;;;;;5076613;28;20180;-84
2021/10/14 09:46:51;;;;;;;0.40;0.33;;;14.10;99.90;;;;;;5071910;28;20774;-82
2021/10/14 09:49:29;;;;;;;0.67;0.67;;;14.30;99.90;;;;;;5065017;28;20917;-82
2021/10/14 09:51:59;;;;;;;0.70;0.70;;;14.40;99.90;;;;;;5093910;28;20639;-81
2021/10/14 09:54:25;;;;;;;0.10;0.10;;;14.50;99.90;;;;;;5074746;28;20195;-82
2021/10/14 09:56:51;;;;;;;0.23;0.23;;;14.50;99.90;;;;;;5085998;28;20196;-81
2021/10/14 09:59:17;;;;;;;0.27;0.27;;;14.50;99.90;;;;;;5077493;28;20265;-82
2021/10/14 10:01:43;;;;;;;0.20;0.20;;;14.60;99.90;;;;;;5086408;28;20199;-82
2021/10/14 10:04:09;;;;;;;0.27;0.27;;;14.80;99.90;;;;;;5078866;28;20182;-82
2021/10/14 10:06:37;;;;;;;0.20;0.20;;;14.80;99.90;;;;;;5072235;28;20200;-82
2021/10/14 10:09:14;;;;;;;0.20;0.20;;;14.70;99.90;;;;;;5084479;28;20786;-81
2021/10/14 10:11:44;;;;;;;1.03;1.00;;;14.70;99.90;;;;;;5083255;28;20204;-81
2021/10/14 10:14:10;;;;;;;0.20;0.20;;;14.80;99.90;;;;;;5073740;28;20173;-82
2021/10/14 10:16:36;;;;;;;0.67;0.43;;;14.70;99.90;;;;;;5066726;28;20683;-81
2021/10/14 10:19:04;;;;;;;0.23;0.23;;;14.60;99.90;;;;;;5067296;28;20173;-82
2021/10/14 10:21:30;;;;;;;0.10;0.10;;;14.80;99.90;;;;;;5068911;28;20227;-82
2021/10/14 10:24:22;;;;;;;0.50;0.50;;;14.80;99.90;;;;;;5066455;28;20178;-82
2021/10/14 10:26:49;;;;;;;0.30;0.27;;;14.80;99.90;;;;;;5051870;28;20237;-82
2021/10/14 10:29:15;;;;;;;5.17;0.50;;;14.70;99.90;;;;;;5071494;28;20235;-83
2021/10/14 10:31:46;;;;;;;0.20;0.20;;;14.80;99.90;;;;;;5070766;28;20201;-82
2021/10/14 10:34:38;;;;;;;0.37;0.37;;;14.80;99.90;;;;;;5067289;28;20224;-82
2021/10/14 10:37:25;;;;;;;0.33;0.27;;;14.70;99.90;;;;;;5054812;28;20297;-82
2021/10/14 10:40:23;;;;;;;0.23;0.20;;;14.60;99.90;;;;;;5068251;28;20522;-82
2021/10/14 10:43:06;;;;;;;0.40;0.40;;;14.50;99.90;;;;;;5070633;28;20186;-82
2021/10/14 10:45:56;;;;;;;0.20;0.20;;;14.40;99.90;;;;;;5072773;28;20201;-82
2021/10/14 10:48:43;;;;;;;0.20;0.20;;;14.50;99.90;;;;;;5081589;28;20226;-82
2021/10/14 10:51:26;;;;;;;0.40;0.40;;;14.50;99.90;;;;;;5083314;28;20576;-82
2021/10/14 10:53:52;;;;;;;1.23;0.80;;;14.50;99.90;;;;;;5085810;28;20180;-83
2021/10/14 10:56:31;;;;;;;0.60;0.40;;;14.50;99.90;;;;;;5068323;28;20205;-82
2021/10/14 10:58:57;;;;;;;0.10;0.10;;;14.50;99.90;;;;;;5081566;28;20177;-83
2021/10/14 11:01:23;;;;;;;0.30;0.30;;;14.50;99.90;;;;;;5074145;28;20192;-82
2021/10/14 11:03:50;;;;;;;1.03;0.50;;;14.60;99.90;;;;;;5074990;28;20269;-83
2021/10/14 11:06:16;;;;;;;0.20;0.20;;;14.80;99.90;;;;;;5081558;28;20209;-83
2021/10/14 11:08:42;;;;;;;0.20;0.20;;;14.90;99.90;;;;;;5086958;28;20549;-82
2021/10/14 11:11:12;;;;;;;0.20;0.20;;;14.90;99.90;;;;;;5087080;28;20250;-82
2021/10/14 11:13:44;;;;;;;1.33;0.93;;;14.90;99.90;;;;;;5070267;28;20186;-83
2021/10/14 11:16:12;;;;;;;0.10;0.10;;;14.80;99.90;;;;;;5067858;28;20208;-82
2021/10/14 11:18:43;;;;;;;0.27;0.27;;;14.80;99.90;;;;;;5087919;28;20702;-82
2021/10/14 11:21:12;;;;;;;0.20;0.20;;;14.80;99.90;;;;;;5069157;28;20239;-83
2021/10/14 11:23:43;;;;;;;0.43;0.43;;;14.80;99.90;;;;;;5060711;28;20200;-84
2021/10/14 11:26:30;;;;;;;2.10;0.83;;;14.90;99.90;;;;;;5060592;28;20204;-83
2021/10/14 11:29:24;;;;;;;0.80;0.80;;;15.00;99.90;;;;;;5065035;28;20293;-83
2021/10/14 11:32:00;;;;;;;0.20;0.20;;;15.10;99.90;;;;;;5061809;28;20193;-83
2021/10/14 11:34:28;;;;;;;0.20;0.20;;;15.20;99.90;;;;;;5076897;28;20226;-83
2021/10/14 11:36:59;;;;;;;0.17;0.17;;;15.30;99.90;;;;;;5065074;28;20290;-84
2021/10/14 11:39:37;;;;;;;0.70;0.67;;;15.50;99.90;;;;;;5059015;28;20330;-82
2021/10/14 11:42:06;;;;;;;2.33;0.50;;;15.60;99.90;;;;;;5092003;28;20177;-83
2021/10/14 11:44:34;;;;;;;0.30;0.30;;;15.90;99.90;;;;;;5074220;28;20184;-83
2021/10/14 11:47:00;;;;;;;0.20;0.20;;;16.00;99.90;;;;;;5070529;28;20580;-85
2021/10/14 11:49:27;;;;;;;0.87;0.60;;;16.10;99.90;;;;;;5072655;28;20178;-82
2021/10/14 11:51:53;;;;;;;1.33;1.00;;;16.20;99.90;;;;;;5076327;28;20330;-84
2021/10/14 11:54:20;;;;;;;0.40;0.40;;;16.20;99.90;;;;;;5076724;28;20205;-83
2021/10/14 11:56:49;;;;;;;0.57;0.50;;;16.20;99.90;;;;;;5078113;28;20243;-83
2021/10/14 11:59:20;;;;;;;0.30;0.30;;;16.30;99.90;;;;;;5086270;28;20226;-83
2021/10/14 12:01:57;;;;;;;0.40;0.40;;;16.30;99.90;;;;;;5068526;28;20186;-83
2021/10/14 12:04:28;;;;;;;0.20;0.20;;;16.20;99.90;;;;;;5070021;28;20184;-83
2021/10/14 12:06:56;;;;;;;0.27;0.27;;;16.30;99.90;;;;;;5084167;28;20198;-84
2021/10/14 12:09:23;;;;;;;0.30;0.30;;;16.30;99.90;;;;;;5073016;28;20180;-83
2021/10/14 12:11:55;;;;;;;0.20;0.20;;;16.30;99.90;;;;;;5077039;28;20195;-84
2021/10/14 12:14:25;;;;;;;0.30;0.30;;;16.40;99.90;;;;;;5066154;28;20172;-84
2021/10/14 12:17:05;;;;;;;0.20;0.20;;;16.40;99.90;;;;;;5085041;28;20207;-84
2021/10/14 12:19:50;;;;;;;1.27;0.50;;;16.40;99.90;;;;;;5069603;28;20271;-83
2021/10/14 12:22:19;;;;;;;0.50;0.50;;;16.60;99.90;;;;;;5090779;28;20648;-84
2021/10/14 12:24:55;;;;;;;0.20;0.20;;;16.80;99.90;;;;;;5075534;28;20186;-83
2021/10/14 12:27:21;;;;;;;0.10;0.10;;;16.70;99.90;;;;;;5070077;28;20217;-83
2021/10/14 12:29:50;;;;;;;0.30;0.20;;;16.80;99.90;;;;;;5075504;28;20619;-83
2021/10/14 12:32:18;;;;;;;0.40;0.40;;;16.70;99.90;;;;;;5073677;28;20199;-84
2021/10/14 12:34:52;;;;;;;0.40;0.40;;;16.70;99.90;;;;;;5073951;28;20267;-83
2021/10/14 12:37:18;;;;;;;0.10;0.10;;;16.70;99.90;;;;;;5079960;28;20199;-83
2021/10/14 12:39:45;;;;;;;0.10;0.10;;;16.90;99.90;;;;;;5082484;28;20183;-83
2021/10/14 12:42:14;;;;;;;0.67;0.20;;;16.90;99.90;;;;;;5074133;28;20195;-82
2021/10/14 12:44:57;;;;;;;0.10;0.10;;;17.00;99.90;;;;;;5077312;28;20282;-83
2021/10/14 12:47:41;;;;;;;0.20;0.20;;;17.00;99.90;;;;;;5065049;28;20185;-83
2021/10/14 12:50:15;;;;;;;0.17;0.17;;;17.00;99.90;;;;;;5069383;28;20794;-83
2021/10/14 12:52:42;;;;;;;0.13;0.13;;;16.90;99.90;;;;;;5094348;28;20583;-83